Terminal Aerodrome Forecast
Issued by NWS

Home | Current Version | Previous Version | Text Only | Print | Product List | Glossary On
Versions: 1 2 3 4 5 6 7 8 9 10 11 12 13 14 15 16
000
FTUS43 KDTX 282104 AAA
TAFDET
TAF AMD
KDET 282104Z 2821/2918 18007KT P6SM SCT040 BKN200
     FM282300 30007KT P6SM SCT040 BKN200
     FM290100 33005KT P6SM SKC
     FM290700 VRB03KT 4SM BR SCT008
      TEMPO 2909/2912 2SM BR SCT008
     FM291300 04004KT P6SM SCT020=

USA.gov is the U.S. government's official web portal to all federal, state and local government web resources and services.